Terminal Aerodrome Forecast
Issued by NWS Louisville, KY

Home | Current Version | Previous Version | Text Only | Print | Product List | Glossary On
Versions: 1 2 3 4 5 6 7 8 9 10 11 12 13 14
670
FTUS43 KLMK 200903 AAA
TAFLEX
TAF AMD
KLEX 200903Z 2009/2106 VRB04KT 2SM BR SKC
      TEMPO 2009/2013 1/4SM FG BKN004
     FM201400 12006KT 4SM BR FEW005 BKN200
     FM201500 12005KT P6SM BKN200=

USA.gov is the U.S. government's official web portal to all federal, state and local government web resources and services.